createdAt,value
2022-08-17T00:01:16.763Z,20.11
2022-08-17T00:03:45.770Z,19.88
2022-08-17T00:06:17.666Z,19.83
2022-08-17T00:08:54.488Z,19.75
2022-08-17T00:11:26.507Z,19.74
2022-08-17T00:13:56.066Z,19.83
2022-08-17T00:16:55.376Z,19.76
2022-08-17T00:19:18.120Z,19.73
2022-08-17T00:22:33.695Z,19.80
2022-08-17T00:24:33.320Z,19.74
2022-08-17T00:26:59.795Z,19.73
2022-08-17T00:29:26.266Z,19.66
2022-08-17T00:31:52.722Z,19.77
2022-08-17T00:34:19.249Z,19.60
2022-08-17T00:36:45.741Z,19.56
2022-08-17T00:39:12.217Z,19.69
2022-08-17T00:41:40.774Z,19.69
2022-08-17T00:44:09.752Z,19.75
2022-08-17T00:46:39.311Z,19.76
2022-08-17T00:49:07.082Z,19.79
2022-08-17T00:51:45.837Z,19.88
2022-08-17T00:54:18.866Z,19.98
2022-08-17T00:57:07.012Z,20.03
2022-08-17T00:59:37.557Z,20.00
2022-08-17T01:02:04.857Z,20.02
2022-08-17T01:04:31.655Z,19.86
2022-08-17T01:06:58.801Z,19.67
2022-08-17T01:09:25.597Z,19.71
2022-08-17T01:11:52.431Z,19.59
2022-08-17T01:14:21.244Z,19.45
2022-08-17T01:16:48.892Z,19.50
2022-08-17T01:19:17.538Z,19.25
2022-08-17T01:21:53.056Z,19.42
2022-08-17T01:24:19.536Z,19.25
2022-08-17T01:26:46.086Z,19.15
2022-08-17T01:29:12.702Z,19.09
2022-08-17T01:31:41.884Z,18.85
2022-08-17T01:34:09.612Z,18.66
2022-08-17T01:36:37.246Z,18.86
2022-08-17T01:39:05.168Z,18.92
2022-08-17T01:41:31.851Z,18.91
2022-08-17T01:44:00.541Z,18.88
2022-08-17T01:46:29.817Z,18.66
2022-08-17T01:48:57.677Z,18.40
2022-08-17T01:51:32.605Z,18.70
2022-08-17T01:54:01.153Z,18.65
2022-08-17T01:56:29.044Z,18.61
2022-08-17T01:58:56.081Z,18.53
2022-08-17T02:01:24.081Z,18.67
2022-08-17T02:03:53.210Z,18.68
2022-08-17T02:06:27.970Z,18.69
2022-08-17T02:09:02.672Z,18.43
2022-08-17T02:11:30.499Z,18.50
2022-08-17T02:14:03.307Z,18.27
2022-08-17T02:16:36.697Z,18.46
2022-08-17T02:19:04.633Z,18.49
2022-08-17T02:21:32.543Z,18.38
2022-08-17T02:23:59.361Z,18.37
2022-08-17T02:26:26.517Z,18.36
2022-08-17T02:28:53.716Z,18.10
2022-08-17T02:31:21.346Z,18.31
2022-08-17T02:34:03.529Z,18.28
2022-08-17T02:36:31.929Z,18.24
2022-08-17T02:38:59.606Z,18.22
2022-08-17T02:41:26.085Z,18.21
2022-08-17T02:43:53.638Z,18.26
2022-08-17T02:46:20.294Z,18.15
2022-08-17T02:48:47.039Z,18.07
2022-08-17T02:51:13.663Z,18.09
2022-08-17T02:53:40.712Z,18.17
2022-08-17T02:56:07.250Z,18.02
2022-08-17T02:58:34.929Z,18.00
2022-08-17T03:01:03.374Z,17.98
2022-08-17T03:03:30.182Z,18.00
2022-08-17T03:05:56.668Z,17.95
2022-08-17T03:08:23.495Z,17.87
2022-08-17T03:10:50.553Z,17.75
2022-08-17T03:13:17.338Z,17.91
2022-08-17T03:15:45.316Z,17.99
2022-08-17T03:18:19.384Z,18.01
2022-08-17T03:20:52.297Z,17.97
2022-08-17T03:23:18.800Z,17.89
2022-08-17T03:25:52.953Z,17.73
2022-08-17T03:28:20.477Z,17.77
2022-08-17T03:30:47.122Z,17.78
2022-08-17T03:33:13.789Z,17.76
2022-08-17T03:35:40.844Z,17.84
2022-08-17T03:38:08.123Z,17.83
2022-08-17T03:40:56.412Z,17.87
2022-08-17T03:43:22.331Z,17.82
2022-08-17T03:46:11.007Z,17.78
2022-08-17T03:49:12.942Z,17.62
2022-08-17T03:51:57.825Z,17.79
2022-08-17T03:54:42.630Z,17.84
2022-08-17T03:57:10.021Z,17.85
2022-08-17T03:59:37.191Z,17.85
2022-08-17T04:02:09.091Z,17.77
2022-08-17T04:04:35.953Z,17.91
2022-08-17T04:07:02.430Z,17.92
2022-08-17T04:09:28.943Z,17.99
2022-08-17T04:11:55.499Z,18.05
2022-08-17T04:14:24.137Z,18.17
2022-08-17T04:16:50.652Z,18.18
2022-08-17T04:19:17.149Z,18.30
2022-08-17T04:21:43.639Z,18.53
2022-08-17T04:24:10.195Z,18.65
2022-08-17T04:26:52.190Z,18.83
2022-08-17T04:29:22.202Z,18.95
2022-08-17T04:31:48.706Z,19.18
2022-08-17T04:34:15.881Z,19.65
2022-08-17T04:36:50.102Z,19.99
2022-08-17T04:39:17.029Z,20.17
2022-08-17T04:42:01.971Z,20.32
2022-08-17T04:44:37.795Z,20.89
2022-08-17T04:47:04.803Z,21.24
2022-08-17T04:49:32.616Z,22.28
2022-08-17T04:52:04.282Z,23.12
2022-08-17T04:54:31.315Z,24.26
2022-08-17T04:56:57.774Z,25.74
2022-08-17T04:59:24.310Z,27.38
2022-08-17T05:01:51.624Z,28.45
2022-08-17T05:04:33.441Z,29.87
2022-08-17T05:07:01.790Z,30.14
2022-08-17T05:09:29.049Z,32.02
2022-08-17T05:11:56.180Z,31.87
2022-08-17T05:14:33.188Z,31.09
2022-08-17T05:17:00.484Z,32.13
2022-08-17T05:19:27.753Z,33.13
2022-08-17T05:21:54.257Z,33.33
2022-08-17T05:24:38.639Z,32.91
2022-08-17T05:27:07.514Z,33.67
2022-08-17T05:29:35.412Z,33.88
2022-08-17T05:32:39.145Z,34.59
2022-08-17T05:34:59.465Z,34.60
2022-08-17T05:37:25.921Z,32.84
2022-08-17T05:39:53.709Z,34.00
2022-08-17T05:42:20.396Z,33.72
2022-08-17T05:44:47.179Z,33.18
2022-08-17T05:47:13.663Z,35.19
2022-08-17T05:49:40.137Z,35.31
2022-08-17T05:52:18.846Z,33.69
2022-08-17T05:54:46.402Z,34.42
2022-08-17T05:57:23.001Z,34.71
2022-08-17T05:59:49.477Z,33.99
2022-08-17T06:02:22.426Z,33.94
2022-08-17T06:04:48.847Z,33.48
2022-08-17T06:07:21.105Z,34.98
2022-08-17T06:10:17.093Z,36.47
2022-08-17T06:12:53.466Z,35.37
2022-08-17T06:15:38.350Z,34.43
2022-08-17T06:18:06.535Z,35.60
2022-08-17T06:20:38.492Z,35.67
2022-08-17T06:23:08.510Z,36.01
2022-08-17T06:25:38.027Z,38.28
2022-08-17T06:28:05.717Z,38.09
2022-08-17T06:30:58.643Z,38.24
2022-08-17T06:33:27.098Z,36.92
2022-08-17T06:36:02.527Z,37.36
2022-08-17T06:38:47.594Z,38.21
2022-08-17T06:41:29.311Z,38.41
2022-08-17T06:44:10.178Z,38.67
2022-08-17T06:46:56.257Z,40.50
2022-08-17T06:49:28.658Z,41.23
2022-08-17T06:52:08.116Z,41.65
2022-08-17T06:54:45.663Z,40.04
2022-08-17T06:57:18.268Z,37.60
2022-08-17T06:59:57.096Z,40.11
2022-08-17T07:03:02.552Z,40.41
2022-08-17T07:05:47.977Z,41.38
2022-08-17T07:08:35.266Z,40.25
2022-08-17T07:11:08.826Z,41.96
2022-08-17T07:13:49.215Z,41.57
2022-08-17T07:16:20.669Z,42.67
2022-08-17T07:18:49.690Z,39.67
2022-08-17T07:21:26.754Z,41.03
2022-08-17T07:24:11.762Z,41.08
2022-08-17T07:27:22.729Z,40.31
2022-08-17T07:29:56.643Z,42.02
2022-08-17T07:32:27.515Z,43.74
2022-08-17T07:35:00.238Z,36.53
2022-08-17T07:37:26.759Z,39.77
2022-08-17T07:40:15.364Z,42.75
2022-08-17T07:42:45.088Z,42.65
2022-08-17T07:45:34.498Z,44.07
2022-08-17T07:48:19.406Z,40.39
2022-08-17T07:50:49.633Z,42.09
2022-08-17T07:53:18.568Z,40.91
2022-08-17T07:55:45.471Z,42.47
2022-08-17T07:58:20.015Z,39.93
2022-08-17T08:00:46.808Z,41.42
2022-08-17T08:03:34.144Z,42.24
2022-08-17T08:06:03.024Z,41.24
2022-08-17T08:08:32.794Z,42.57
2022-08-17T08:10:59.286Z,40.88
2022-08-17T08:13:28.807Z,41.44
2022-08-17T08:15:56.891Z,39.11
2022-08-17T08:18:47.610Z,41.21
2022-08-17T08:21:29.040Z,40.92
2022-08-17T08:24:00.213Z,41.75
2022-08-17T08:26:40.688Z,38.68
2022-08-17T08:29:10.294Z,41.07
2022-08-17T08:31:51.838Z,38.50
2022-08-17T08:34:53.367Z,36.95
2022-08-17T08:37:35.714Z,37.05
2022-08-17T08:40:11.070Z,39.07
2022-08-17T08:42:37.627Z,36.38
2022-08-17T08:45:05.265Z,37.05
2022-08-17T08:47:35.559Z,37.88
2022-08-17T08:50:37.120Z,36.86
2022-08-17T08:53:23.676Z,36.93
2022-08-17T08:55:55.794Z,36.27
2022-08-17T08:58:31.343Z,35.43
2022-08-17T09:01:17.047Z,36.19
2022-08-17T09:03:53.268Z,36.30
2022-08-17T09:06:37.478Z,36.78
2022-08-17T09:09:09.128Z,36.85
2022-08-17T09:12:02.163Z,36.99
2022-08-17T09:14:47.093Z,35.31
2022-08-17T09:17:16.434Z,36.30
2022-08-17T09:19:46.265Z,35.63
2022-08-17T09:22:19.044Z,35.03
2022-08-17T09:24:57.335Z,33.95
2022-08-17T09:27:30.583Z,35.39
2022-08-17T09:30:00.144Z,36.09
2022-08-17T09:32:38.875Z,36.49
2022-08-17T09:35:14.745Z,36.89
2022-08-17T09:37:53.160Z,37.15
2022-08-17T09:40:24.720Z,37.44
2022-08-17T09:43:15.402Z,37.87
2022-08-17T09:45:42.632Z,36.95
2022-08-17T09:48:15.408Z,37.64
2022-08-17T09:51:03.553Z,38.32
2022-08-17T09:53:33.313Z,38.27
2022-08-17T09:56:05.962Z,37.36
2022-08-17T09:58:32.395Z,36.77
2022-08-17T10:01:06.645Z,37.92
2022-08-17T10:03:53.839Z,37.37
2022-08-17T10:06:27.159Z,37.36
2022-08-17T10:09:06.603Z,35.47
2022-08-17T10:12:09.360Z,36.96
2022-08-17T10:14:43.830Z,36.56
2022-08-17T10:17:18.542Z,36.98
2022-08-17T10:19:53.876Z,35.70
2022-08-17T10:22:44.039Z,35.00
2022-08-17T10:25:48.715Z,35.60
2022-08-17T10:28:21.443Z,36.20
2022-08-17T10:30:58.053Z,36.52
2022-08-17T10:33:45.425Z,37.29
2022-08-17T10:36:23.887Z,37.73
2022-08-17T10:38:59.567Z,37.26
2022-08-17T10:41:28.815Z,37.76
2022-08-17T10:44:36.626Z,38.87
2022-08-17T10:46:53.993Z,37.53
2022-08-17T10:49:21.175Z,36.74
2022-08-17T10:51:48.943Z,36.95
2022-08-17T10:54:24.304Z,37.11
2022-08-17T10:56:54.901Z,37.01
2022-08-17T10:59:36.740Z,36.89
2022-08-17T11:02:18.738Z,37.39
2022-08-17T11:04:48.052Z,37.03
2022-08-17T11:07:36.340Z,37.15
2022-08-17T11:10:21.901Z,36.53
2022-08-17T11:13:03.006Z,36.29
2022-08-17T11:15:41.396Z,37.82
2022-08-17T11:18:10.988Z,36.44
2022-08-17T11:20:38.739Z,37.27
2022-08-17T11:23:08.022Z,38.39
2022-08-17T11:25:38.467Z,38.10
2022-08-17T11:28:06.682Z,37.58
2022-08-17T11:30:50.949Z,36.60
2022-08-17T11:33:44.947Z,38.24
2022-08-17T11:36:11.794Z,37.81
2022-08-17T11:38:41.380Z,36.14
2022-08-17T11:41:27.499Z,37.44
2022-08-17T11:43:59.099Z,36.13
2022-08-17T11:46:59.354Z,36.72
2022-08-17T11:50:03.103Z,37.57
2022-08-17T11:52:35.767Z,37.80
2022-08-17T11:55:17.979Z,37.76
2022-08-17T11:57:59.812Z,36.64
2022-08-17T12:00:44.671Z,36.86
2022-08-17T12:03:22.702Z,36.41
2022-08-17T12:05:50.318Z,37.12
2022-08-17T12:08:21.528Z,37.33
2022-08-17T12:11:18.979Z,36.02
2022-08-17T12:14:06.545Z,36.23
2022-08-17T12:16:32.989Z,36.87
2022-08-17T12:19:02.530Z,36.00
2022-08-17T12:21:37.443Z,37.11
2022-08-17T12:24:06.530Z,36.60
2022-08-17T12:26:34.297Z,36.81
2022-08-17T12:29:05.295Z,37.20
2022-08-17T12:31:35.858Z,38.07
2022-08-17T12:34:04.370Z,38.75
2022-08-17T12:36:32.663Z,38.18
2022-08-17T12:39:12.860Z,37.26
2022-08-17T12:41:42.327Z,36.22
2022-08-17T12:44:12.244Z,36.14
2022-08-17T12:46:49.789Z,36.41
2022-08-17T12:49:26.883Z,36.74
2022-08-17T12:51:57.399Z,35.72
2022-08-17T12:54:31.451Z,35.83
2022-08-17T12:57:02.125Z,36.74
2022-08-17T12:59:30.485Z,37.93
2022-08-17T13:01:57.302Z,37.01
2022-08-17T13:04:24.216Z,35.70
2022-08-17T13:06:59.671Z,37.25
2022-08-17T13:09:35.907Z,36.85
2022-08-17T13:12:07.692Z,36.34
2022-08-17T13:14:35.167Z,35.94
2022-08-17T13:17:02.381Z,36.22
2022-08-17T13:19:41.138Z,35.88
2022-08-17T13:22:10.821Z,36.33
2022-08-17T13:24:38.326Z,37.07
2022-08-17T13:27:08.402Z,37.87
2022-08-17T13:29:38.672Z,37.57
2022-08-17T13:32:13.538Z,37.56
2022-08-17T13:35:12.390Z,37.57
2022-08-17T13:37:30.798Z,38.17
2022-08-17T13:39:57.412Z,38.41
2022-08-17T13:42:50.548Z,36.80
2022-08-17T13:45:36.246Z,35.87
2022-08-17T13:48:13.755Z,35.87
2022-08-17T13:50:59.539Z,35.51
2022-08-17T13:53:26.866Z,36.21
2022-08-17T13:55:53.342Z,36.79
2022-08-17T13:58:26.654Z,35.89
2022-08-17T14:00:53.231Z,35.21
2022-08-17T14:03:20.437Z,36.39
2022-08-17T14:05:47.762Z,36.72
2022-08-17T14:08:15.590Z,36.32
2022-08-17T14:10:42.322Z,36.59
2022-08-17T14:13:08.900Z,36.60
2022-08-17T14:15:55.039Z,36.68
2022-08-17T14:18:52.037Z,36.98
2022-08-17T14:21:09.205Z,36.94
2022-08-17T14:23:36.696Z,37.67
2022-08-17T14:26:03.433Z,37.44
2022-08-17T14:28:29.882Z,37.34
2022-08-17T14:30:56.371Z,37.70
2022-08-17T14:33:24.691Z,37.62
2022-08-17T14:35:53.545Z,37.28
2022-08-17T14:38:20.650Z,37.33
2022-08-17T14:40:47.837Z,36.57
2022-08-17T14:43:15.854Z,36.51
2022-08-17T14:45:42.839Z,36.32
2022-08-17T14:48:09.393Z,36.19
2022-08-17T14:50:37.469Z,36.32
2022-08-17T14:53:05.350Z,36.49
2022-08-17T14:55:32.479Z,36.11
2022-08-17T14:57:59.039Z,36.23
2022-08-17T15:00:26.978Z,36.11
2022-08-17T15:02:55.167Z,36.19
2022-08-17T15:05:23.393Z,35.87
2022-08-17T15:07:50.509Z,35.91
2022-08-17T15:10:17.742Z,35.96
2022-08-17T15:12:44.237Z,36.27
2022-08-17T15:15:12.749Z,35.99
2022-08-17T15:17:45.063Z,36.19
2022-08-17T15:20:18.116Z,36.21
2022-08-17T15:22:45.556Z,36.23
2022-08-17T15:25:12.714Z,36.12
2022-08-17T15:27:40.351Z,35.84
2022-08-17T15:30:07.451Z,35.59
2022-08-17T15:32:35.177Z,35.52
2022-08-17T15:35:02.875Z,35.68
2022-08-17T15:37:31.779Z,35.46
2022-08-17T15:39:58.381Z,35.15
2022-08-17T15:42:25.341Z,34.92
2022-08-17T15:44:54.575Z,34.71
2022-08-17T15:47:21.887Z,34.77
2022-08-17T15:49:48.784Z,34.81
2022-08-17T15:52:22.498Z,34.41
2022-08-17T15:54:55.301Z,34.68
2022-08-17T15:57:23.362Z,34.66
2022-08-17T15:59:55.068Z,34.54
2022-08-17T16:03:46.884Z,34.60
2022-08-17T16:05:15.340Z,34.64
2022-08-17T16:07:45.310Z,34.60
2022-08-17T16:10:16.751Z,34.03
2022-08-17T16:12:46.138Z,33.81
2022-08-17T16:15:13.781Z,33.66
2022-08-17T16:17:43.839Z,33.68
2022-08-17T16:20:20.637Z,33.59
2022-08-17T16:22:48.034Z,33.59
2022-08-17T16:25:16.797Z,33.41
2022-08-17T16:27:43.595Z,33.42
2022-08-17T16:30:16.475Z,33.38
2022-08-17T16:32:44.031Z,33.31
2022-08-17T16:35:12.006Z,33.32
2022-08-17T16:37:40.308Z,33.36
2022-08-17T16:40:11.639Z,33.24
2022-08-17T16:42:39.538Z,33.12
2022-08-17T16:45:13.337Z,32.93
2022-08-17T16:47:40.167Z,32.98
2022-08-17T16:50:07.104Z,33.03
2022-08-17T16:52:33.747Z,32.89
2022-08-17T16:55:00.926Z,32.72
2022-08-17T16:57:28.108Z,32.59
2022-08-17T16:59:54.671Z,32.46
2022-08-17T17:02:29.610Z,32.31
2022-08-17T17:04:59.397Z,32.13
2022-08-17T17:07:44.057Z,31.92
2022-08-17T17:10:13.852Z,31.68
2022-08-17T17:13:02.606Z,31.62
2022-08-17T17:15:30.832Z,31.31
2022-08-17T17:18:01.790Z,31.13
2022-08-17T17:20:38.989Z,31.02
2022-08-17T17:23:11.654Z,30.94
2022-08-17T17:25:58.158Z,30.88
2022-08-17T17:28:27.686Z,30.76
2022-08-17T17:31:11.214Z,30.66
2022-08-17T17:33:48.869Z,30.32
2022-08-17T17:36:21.454Z,30.09
2022-08-17T17:38:53.014Z,29.91
2022-08-17T17:41:29.001Z,29.71
2022-08-17T17:44:03.032Z,29.48
2022-08-17T17:46:33.391Z,29.22
2022-08-17T17:49:00.448Z,29.14
2022-08-17T17:52:09.454Z,28.90
2022-08-17T17:54:20.246Z,28.78
2022-08-17T17:56:46.687Z,28.55
2022-08-17T17:59:15.914Z,28.38
2022-08-17T18:01:51.825Z,28.21
2022-08-17T18:04:27.536Z,27.98
2022-08-17T18:07:01.389Z,27.82
2022-08-17T18:09:27.839Z,27.59
2022-08-17T18:12:06.506Z,27.37
2022-08-17T18:14:46.854Z,27.23
2022-08-17T18:17:14.556Z,27.05
2022-08-17T18:19:41.496Z,26.86
2022-08-17T18:22:13.983Z,26.67
2022-08-17T18:24:42.037Z,26.61
2022-08-17T18:27:41.065Z,26.41
2022-08-17T18:30:13.406Z,26.28
2022-08-17T18:32:46.402Z,26.12
2022-08-17T18:35:14.239Z,25.97
2022-08-17T18:37:45.762Z,25.88
2022-08-17T18:40:19.426Z,25.65
2022-08-17T18:43:06.343Z,25.57
2022-08-17T18:45:38.548Z,25.55
2022-08-17T18:48:07.100Z,25.41
2022-08-17T18:50:39.739Z,25.38
2022-08-17T18:53:26.616Z,25.31
2022-08-17T18:56:15.224Z,25.19
2022-08-17T18:58:43.235Z,25.06
2022-08-17T19:01:52.176Z,25.03
2022-08-17T19:04:34.086Z,25.04
2022-08-17T19:07:06.348Z,25.03
2022-08-17T19:09:35.814Z,24.94
2022-08-17T19:12:04.031Z,24.89
2022-08-17T19:14:31.030Z,24.92
2022-08-17T19:17:01.902Z,24.81
2022-08-17T19:19:31.357Z,24.75
2022-08-17T19:22:00.813Z,24.71
2022-08-17T19:24:30.017Z,24.55
2022-08-17T19:26:59.449Z,24.52
2022-08-17T19:29:37.379Z,24.46
2022-08-17T19:32:06.427Z,24.37
2022-08-17T19:34:34.716Z,24.28
2022-08-17T19:37:01.241Z,24.19
2022-08-17T19:39:43.579Z,24.03
2022-08-17T19:42:14.123Z,23.99
2022-08-17T19:44:56.294Z,23.97
2022-08-17T19:47:53.121Z,23.86
2022-08-17T19:50:17.301Z,23.81
2022-08-17T19:52:55.902Z,23.70
2022-08-17T19:55:32.013Z,23.66
2022-08-17T19:57:58.459Z,23.50
2022-08-17T20:00:24.943Z,23.51
2022-08-17T20:02:54.528Z,23.43
2022-08-17T20:05:27.279Z,23.34
2022-08-17T20:08:06.549Z,23.31
2022-08-17T20:10:32.979Z,23.25
2022-08-17T20:13:04.006Z,23.23
2022-08-17T20:15:33.421Z,23.15
2022-08-17T20:18:01.174Z,23.10
2022-08-17T20:20:38.542Z,23.15
2022-08-17T20:23:14.962Z,22.86
2022-08-17T20:25:41.424Z,22.74
2022-08-17T20:28:22.903Z,22.88
2022-08-17T20:30:50.819Z,22.85
2022-08-17T20:33:32.408Z,22.82
2022-08-17T20:36:01.641Z,22.66
2022-08-17T20:38:38.835Z,22.65
2022-08-17T20:41:09.831Z,22.63
2022-08-17T20:43:37.273Z,22.64
2022-08-17T20:46:19.634Z,22.63
2022-08-17T20:48:47.347Z,22.64
2022-08-17T20:51:21.532Z,22.51
2022-08-17T20:53:48.080Z,22.48
2022-08-17T20:56:40.739Z,22.52
2022-08-17T20:59:07.240Z,22.46
2022-08-17T21:01:40.574Z,22.40
2022-08-17T21:04:08.933Z,22.34
2022-08-17T21:06:55.389Z,22.35
2022-08-17T21:09:27.682Z,22.28
2022-08-17T21:12:02.765Z,22.29
2022-08-17T21:14:31.316Z,22.23
2022-08-17T21:17:06.819Z,22.20
2022-08-17T21:20:13.051Z,22.34
2022-08-17T21:22:47.143Z,22.07
2022-08-17T21:25:22.596Z,22.21
2022-08-17T21:28:10.121Z,22.15
2022-08-17T21:30:39.163Z,22.06
2022-08-17T21:33:16.899Z,21.95
2022-08-17T21:35:49.734Z,21.97
2022-08-17T21:38:19.476Z,22.00
2022-08-17T21:40:50.029Z,22.02
2022-08-17T21:43:23.607Z,21.90
2022-08-17T21:46:01.275Z,21.78
2022-08-17T21:48:29.338Z,21.88
2022-08-17T21:50:57.970Z,21.77
2022-08-17T21:53:57.110Z,21.69
2022-08-17T21:56:31.719Z,21.76
2022-08-17T21:59:08.514Z,21.38
2022-08-17T22:01:37.134Z,21.34
2022-08-17T22:04:18.491Z,21.35
2022-08-17T22:06:57.603Z,21.42
2022-08-17T22:09:26.316Z,21.26
2022-08-17T22:12:00.491Z,21.34
2022-08-17T22:14:51.537Z,21.12
2022-08-17T22:17:19.924Z,21.15
2022-08-17T22:19:54.351Z,21.31
2022-08-17T22:22:32.884Z,21.37
2022-08-17T22:25:04.526Z,21.42
2022-08-17T22:27:45.489Z,21.33
2022-08-17T22:30:35.476Z,21.26
2022-08-17T22:33:21.906Z,20.87
2022-08-17T22:35:48.432Z,20.78
2022-08-17T22:38:35.179Z,20.98
2022-08-17T22:41:20.324Z,21.00
2022-08-17T22:43:48.134Z,20.77
2022-08-17T22:46:15.292Z,20.59
2022-08-17T22:48:52.528Z,21.09
2022-08-17T22:51:20.845Z,21.51
2022-08-17T22:54:08.078Z,21.91
2022-08-17T22:56:53.433Z,21.91
2022-08-17T22:59:43.680Z,21.95
2022-08-17T23:02:13.239Z,21.82
2022-08-17T23:04:42.059Z,21.81
2022-08-17T23:07:08.642Z,21.76
2022-08-17T23:09:35.896Z,21.57
2022-08-17T23:12:05.562Z,21.52
2022-08-17T23:14:36.455Z,21.40
2022-08-17T23:17:03.321Z,21.36
2022-08-17T23:19:32.749Z,21.30
2022-08-17T23:22:01.505Z,21.36
2022-08-17T23:24:29.016Z,21.41
2022-08-17T23:26:57.444Z,21.84
2022-08-17T23:29:24.778Z,22.15
2022-08-17T23:31:51.465Z,22.51
2022-08-17T23:34:18.622Z,22.59
2022-08-17T23:36:50.622Z,22.68
2022-08-17T23:39:28.560Z,22.63
2022-08-17T23:41:56.998Z,22.57
2022-08-17T23:44:23.730Z,22.41
2022-08-17T23:46:51.133Z,22.47
2022-08-17T23:49:19.001Z,22.28
2022-08-17T23:51:45.858Z,22.03
2022-08-17T23:54:23.551Z,21.86
2022-08-17T23:56:50.120Z,21.78
2022-08-17T23:59:18.907Z,21.45
